Time;durP1;ratioP1;P1;durP2;ratioP2;P2;SDS_P1;SDS_P2;PMS_P1;PMS_P2;Temp;Humidity;BMP_temperature;BMP_pressure;BME280_temperature;BME280_humidity;BME280_pressure;Samples;Min_cycle;Max_cycle;Signal;HPM_P1;HPM_P2
2023/02/15 00:00:46;;;;;;;3.92;1.30;;;24.90;66.00;;;;;;4107116;28;20057;-69
2023/02/15 00:03:08;;;;;;;3.38;1.40;;;25.00;65.50;;;;;;4106549;28;20038;-68
2023/02/15 00:05:31;;;;;;;5.53;1.58;;;25.10;65.60;;;;;;4105503;28;20047;-67
2023/02/15 00:07:57;;;;;;;5.05;1.70;;;25.10;65.00;;;;;;4105788;28;20046;-69
2023/02/15 00:10:19;;;;;;;1.63;0.90;;;25.10;64.80;;;;;;4105912;28;20043;-69
2023/02/15 00:12:42;;;;;;;2.95;1.30;;;25.10;65.00;;;;;;4104509;28;20472;-64
2023/02/15 00:15:04;;;;;;;2.20;1.00;;;25.20;65.40;;;;;;4102605;28;20122;-67
2023/02/15 00:17:30;;;;;;;3.67;1.08;;;25.20;65.30;;;;;;4102696;28;20070;-85
2023/02/15 00:19:52;;;;;;;2.50;1.10;;;25.30;65.10;;;;;;4102867;28;20117;-80
2023/02/15 00:22:15;;;;;;;4.85;2.00;;;25.30;65.00;;;;;;4105183;28;20053;-82
2023/02/15 00:24:37;;;;;;;3.10;1.25;;;25.40;64.50;;;;;;4103554;28;20063;-82
2023/02/15 00:26:59;;;;;;;3.88;1.13;;;25.40;64.60;;;;;;4104386;28;20046;-79
2023/02/15 00:29:22;;;;;;;4.28;1.85;;;25.50;64.50;;;;;;4107884;28;20034;-78
2023/02/15 00:31:44;;;;;;;4.85;1.33;;;25.50;63.40;;;;;;4106685;28;20145;-78
2023/02/15 00:34:16;;;;;;;5.07;1.67;;;25.50;63.30;;;;;;4108533;28;20073;-85
2023/02/15 00:36:39;;;;;;;3.92;1.42;;;25.40;62.00;;;;;;4110037;28;20105;-80
2023/02/15 00:39:01;;;;;;;6.07;1.90;;;25.30;61.70;;;;;;4107749;28;20085;-83
2023/02/15 00:41:24;;;;;;;5.72;1.75;;;25.30;61.20;;;;;;4107693;28;20031;-78
2023/02/15 00:43:46;;;;;;;5.25;1.80;;;25.20;60.80;;;;;;4109210;28;20046;-78
2023/02/15 00:46:12;;;;;;;3.40;1.75;;;25.20;60.80;;;;;;4113530;28;20046;-80
2023/02/15 00:48:34;;;;;;;6.35;1.80;;;25.20;60.50;;;;;;4109603;28;20104;-80
2023/02/15 00:50:59;;;;;;;3.75;1.67;;;25.20;60.30;;;;;;4110071;28;20043;-81
2023/02/15 00:53:22;;;;;;;7.38;2.42;;;25.20;60.40;;;;;;4111366;28;20377;-79
2023/02/15 00:55:44;;;;;;;5.43;2.08;;;25.20;60.60;;;;;;4107275;28;20109;-84
2023/02/15 00:58:08;;;;;;;5.30;1.90;;;25.20;60.40;;;;;;4108987;28;20432;-70
2023/02/15 01:00:30;;;;;;;4.20;1.80;;;25.30;60.60;;;;;;4115099;28;20069;-68
2023/02/15 01:02:53;;;;;;;8.38;2.65;;;25.40;60.40;;;;;;4110174;28;20038;-71
2023/02/15 01:05:21;;;;;;;10.38;2.40;;;25.50;60.70;;;;;;4110415;28;20082;-77
2023/02/15 01:07:44;;;;;;;5.57;2.10;;;25.50;59.90;;;;;;4108418;28;20122;-68
2023/02/15 01:10:07;;;;;;;3.45;1.85;;;25.60;59.30;;;;;;4107417;28;20128;-67
2023/02/15 01:12:29;;;;;;;5.43;1.85;;;25.60;59.40;;;;;;4110835;28;20467;-65
2023/02/15 01:14:52;;;;;;;4.70;2.08;;;25.60;59.20;;;;;;4111218;28;20115;-66
2023/02/15 01:17:14;;;;;;;4.35;2.00;;;25.60;58.60;;;;;;4109655;28;20046;-67
2023/02/15 01:19:37;;;;;;;4.68;2.22;;;25.70;58.50;;;;;;4110157;28;20050;-66
2023/02/15 01:21:59;;;;;;;6.35;2.28;;;25.70;58.90;;;;;;4110033;28;20053;-65
2023/02/15 01:24:22;;;;;;;6.10;2.70;;;25.70;58.20;;;;;;4109808;28;20097;-66
2023/02/15 01:26:44;;;;;;;4.72;2.22;;;25.70;58.20;;;;;;4109634;28;20035;-66
2023/02/15 01:29:06;;;;;;;5.43;3.00;;;25.70;58.40;;;;;;4108923;28;20070;-65
2023/02/15 01:31:29;;;;;;;5.72;3.28;;;25.80;58.00;;;;;;4110138;28;20035;-65
2023/02/15 01:33:51;;;;;;;5.38;3.50;;;25.80;57.60;;;;;;4121189;28;20550;-84
2023/02/15 01:36:14;;;;;;;5.90;3.45;;;25.80;58.10;;;;;;4110146;28;20035;-82
2023/02/15 01:38:37;;;;;;;5.38;3.22;;;25.80;58.30;;;;;;4110795;28;20035;-84
2023/02/15 01:43:48;;;;;;;4.75;3.08;;;26.00;58.40;;;;;;4108969;28;20063;-79
2023/02/15 01:46:13;;;;;;;5.55;3.40;;;26.10;58.20;;;;;;4109445;28;20035;-77
2023/02/15 01:48:41;;;;;;;4.20;2.90;;;26.20;57.20;;;;;;4109013;28;20527;-80
2023/02/15 01:51:03;;;;;;;5.18;2.80;;;26.20;57.10;;;;;;4105048;28;20082;-82
2023/02/15 01:53:46;;;;;;;5.90;2.58;;;26.20;57.30;;;;;;4108801;28;20035;-79
2023/02/15 01:56:36;;;;;;;6.47;2.95;;;26.20;57.20;;;;;;4107909;28;20487;-81
2023/02/15 01:59:17;;;;;;;6.30;2.97;;;26.20;56.90;;;;;;4108194;28;20117;-81
2023/02/15 02:01:40;;;;;;;6.00;2.65;;;26.30;56.60;;;;;;4136365;23;20518;-41
2023/02/15 02:04:06;;;;;;;4.70;2.63;;;26.30;56.60;;;;;;4119282;28;20048;-45
2023/02/15 02:06:29;;;;;;;4.47;2.75;;;26.30;57.20;;;;;;4115711;28;20137;-41
2023/02/15 02:08:53;;;;;;;8.13;2.80;;;26.30;56.50;;;;;;4115056;28;20038;-42
2023/02/15 02:11:15;;;;;;;;;;;26.30;56.80;;;;;;4115631;28;20146;-40
2023/02/15 02:13:39;;;;;;;4.55;2.50;;;26.30;57.20;;;;;;4115204;28;20384;-42
2023/02/15 02:16:25;;;;;;;5.25;2.10;;;26.40;57.30;;;;;;4109429;28;20124;-44
2023/02/15 02:19:12;;;;;;;2.97;1.85;;;26.40;57.30;;;;;;4099289;28;20165;-41
2023/02/15 02:21:56;;;;;;;4.07;1.90;;;26.40;57.30;;;;;;4113024;28;20038;-44
2023/02/15 02:24:44;;;;;;;3.40;2.10;;;26.50;57.20;;;;;;4117437;28;20084;-46
2023/02/15 02:27:27;;;;;;;3.50;1.95;;;26.50;57.40;;;;;;4114813;28;20431;-47
2023/02/15 02:30:07;;;;;;;4.32;2.20;;;26.60;57.60;;;;;;4121070;28;20046;-41
2023/02/15 02:32:50;;;;;;;4.78;2.10;;;26.60;57.50;;;;;;4115520;28;20044;-41
2023/02/15 02:35:27;;;;;;;3.08;2.03;;;26.60;57.20;;;;;;4120119;28;20045;-44
2023/02/15 02:37:51;;;;;;;4.15;1.90;;;26.70;57.20;;;;;;4119694;28;20432;-48
2023/02/15 02:40:28;;;;;;;3.92;2.03;;;26.60;57.10;;;;;;4117275;28;20536;-43
2023/02/15 02:43:02;;;;;;;3.42;1.77;;;26.60;57.30;;;;;;4116215;28;20554;-43
2023/02/15 02:45:33;;;;;;;;;;;26.60;57.50;;;;;;4115907;28;20046;-41
2023/02/15 02:48:18;;;;;;;5.70;1.92;;;26.60;57.90;;;;;;4117201;28;20438;-45
2023/02/15 02:50:41;;;;;;;2.55;1.30;;;26.70;58.60;;;;;;4112707;28;20069;-46
2023/02/15 02:53:03;;;;;;;2.80;1.55;;;26.80;58.90;;;;;;4114805;28;20510;-43
2023/02/15 02:55:41;;;;;;;4.95;1.70;;;26.90;59.00;;;;;;4116986;28;20038;-41
2023/02/15 02:58:15;;;;;;;2.17;1.50;;;26.90;59.00;;;;;;4122143;28;20053;-42
2023/02/15 03:01:05;;;;;;;2.67;1.88;;;27.00;59.10;;;;;;4121975;28;20054;-42
2023/02/15 03:03:39;;;;;;;2.25;1.52;;;27.00;59.10;;;;;;4118189;28;20053;-44
2023/02/15 03:06:19;;;;;;;3.90;1.65;;;27.00;59.30;;;;;;4124755;28;20121;-43
2023/02/15 03:08:47;;;;;;;4.00;1.77;;;27.10;59.10;;;;;;4119840;28;20034;-40
2023/02/15 03:11:11;;;;;;;3.45;1.60;;;27.10;59.20;;;;;;4120805;28;20034;-40
2023/02/15 03:13:34;;;;;;;3.65;1.50;;;27.10;59.20;;;;;;4117636;28;20128;-43
2023/02/15 03:18:52;;;;;;;3.83;1.60;;;27.10;59.40;;;;;;4121791;28;20046;-43
2023/02/15 03:21:21;;;;;;;3.15;1.70;;;27.10;59.30;;;;;;4116125;28;20165;-43
2023/02/15 03:23:44;;;;;;;3.47;1.73;;;27.20;59.40;;;;;;4120386;28;20045;-46
2023/02/15 03:26:10;;;;;;;4.07;1.77;;;27.20;59.30;;;;;;4116206;28;20116;-47
2023/02/15 03:28:43;;;;;;;3.10;1.50;;;27.30;59.90;;;;;;4119183;28;20050;-44
2023/02/15 03:31:07;;;;;;;2.70;1.63;;;27.30;59.30;;;;;;4121492;28;20049;-44
2023/02/15 03:33:30;;;;;;;3.42;1.20;;;27.30;59.30;;;;;;4114194;28;20590;-44
2023/02/15 03:36:02;;;;;;;6.53;1.63;;;27.30;59.30;;;;;;4117644;28;20508;-42
2023/02/15 03:38:41;;;;;;;3.60;1.48;;;27.40;59.50;;;;;;4125242;28;20052;-43
2023/02/15 03:41:11;;;;;;;2.78;1.20;;;27.40;59.50;;;;;;4123017;28;20407;-41
2023/02/15 03:43:57;;;;;;;4.40;1.40;;;27.40;59.40;;;;;;4116011;28;20141;-45
2023/02/15 03:46:33;;;;;;;5.10;1.83;;;27.50;59.50;;;;;;4116728;28;20243;-42
2023/02/15 03:49:20;;;;;;;3.40;1.35;;;27.50;59.40;;;;;;4110823;28;20112;-40
2023/02/15 03:51:46;;;;;;;3.00;1.60;;;27.50;59.30;;;;;;4113514;28;20118;-45
2023/02/15 03:54:41;;;;;;;5.13;1.75;;;27.60;59.40;;;;;;4103998;28;20067;-44
2023/02/15 04:02:31;;;;;;;5.35;1.95;;;27.70;57.70;;;;;;4110279;28;20046;-45
2023/02/15 04:04:53;;;;;;;4.47;2.20;;;27.60;57.10;;;;;;4105631;28;20125;-44
2023/02/15 04:07:16;;;;;;;5.22;2.13;;;27.70;56.60;;;;;;4108913;28;20050;-42
2023/02/15 04:12:19;;;;;;;3.88;2.00;;;27.70;56.10;;;;;;4110016;28;20057;-43
2023/02/15 04:17:22;;;;;;;3.33;1.55;;;27.70;55.60;;;;;;4109638;28;20042;-43
2023/02/15 04:25:15;;;;;;;3.28;1.77;;;27.70;55.60;;;;;;4116139;28;20178;-41
2023/02/15 04:27:37;;;;;;;4.32;1.73;;;27.80;55.60;;;;;;4115357;28;20034;-44
2023/02/15 04:30:00;;;;;;;5.25;1.95;;;27.90;55.50;;;;;;4113926;28;20038;-46
2023/02/15 04:32:22;;;;;;;4.25;1.88;;;27.90;55.00;;;;;;4115809;28;20044;-45
2023/02/15 04:34:45;;;;;;;2.78;1.55;;;27.90;54.50;;;;;;4107567;28;20039;-46
2023/02/15 04:37:07;;;;;;;3.75;2.05;;;27.90;54.50;;;;;;4110179;28;20097;-45
2023/02/15 04:39:30;;;;;;;5.13;1.45;;;28.00;54.40;;;;;;4113798;28;20082;-45
2023/02/15 04:41:52;;;;;;;2.88;1.48;;;28.00;54.30;;;;;;4110345;28;20082;-47
2023/02/15 04:44:14;;;;;;;5.03;2.08;;;28.10;55.20;;;;;;4109903;28;20077;-44
2023/02/15 04:46:37;;;;;;;2.70;1.17;;;28.10;53.90;;;;;;4116054;28;20034;-45
2023/02/15 04:55:33;;;;;;;3.85;1.45;;;28.30;53.20;;;;;;4135199;28;20052;-42
2023/02/15 04:57:56;;;;;;;4.43;2.15;;;28.30;53.30;;;;;;4113468;28;20566;-45
2023/02/15 05:00:19;;;;;;;3.67;1.50;;;28.40;53.30;;;;;;4116268;28;20125;-47
2023/02/15 05:02:41;;;;;;;3.43;1.50;;;28.40;53.60;;;;;;4113401;28;20053;-44
2023/02/15 05:05:04;;;;;;;5.18;1.85;;;28.40;53.40;;;;;;4106687;28;20436;-43
2023/02/15 05:07:26;;;;;;;6.70;1.25;;;28.50;53.50;;;;;;4107736;28;20106;-47
2023/02/15 05:09:49;;;;;;;5.53;2.17;;;28.50;53.10;;;;;;4106140;28;20072;-43
2023/02/15 05:12:11;;;;;;;2.83;1.63;;;28.60;52.50;;;;;;4103438;28;20042;-46
2023/02/15 05:14:34;;;;;;;2.85;1.40;;;28.60;53.00;;;;;;4107976;28;20043;-45
2023/02/15 05:16:58;;;;;;;3.80;1.70;;;28.70;53.10;;;;;;4108618;28;20041;-45
2023/02/15 05:19:23;;;;;;;2.70;1.48;;;28.80;52.90;;;;;;4109370;28;20030;-43
2023/02/15 05:21:45;;;;;;;3.58;1.60;;;28.80;53.00;;;;;;4108728;28;20057;-43
2023/02/15 05:29:30;;;;;;;5.63;1.42;;;29.00;52.90;;;;;;4112524;28;20404;-44
2023/02/15 05:31:53;;;;;;;4.15;1.33;;;29.00;52.30;;;;;;4115960;28;20108;-41
2023/02/15 05:34:15;;;;;;;5.20;1.40;;;29.00;52.50;;;;;;4113198;28;20511;-43
2023/02/15 05:36:38;;;;;;;3.83;1.58;;;29.10;52.50;;;;;;4110817;28;20201;-44
2023/02/15 05:39:00;;;;;;;4.38;1.50;;;29.10;51.90;;;;;;4115296;28;20046;-44
2023/02/15 05:41:22;;;;;;;3.33;1.50;;;29.20;52.50;;;;;;4107997;28;20042;-42
2023/02/15 05:43:45;;;;;;;3.60;1.58;;;29.20;52.00;;;;;;4115110;28;20042;-47
2023/02/15 05:46:08;;;;;;;3.28;1.52;;;29.20;52.30;;;;;;4105641;28;20077;-42
2023/02/15 05:48:32;;;;;;;3.78;1.52;;;29.30;52.50;;;;;;4109479;28;20030;-45
2023/02/15 05:51:03;;;;;;;3.15;1.35;;;29.40;52.30;;;;;;4116083;28;20589;-44
2023/02/15 05:53:26;;;;;;;4.97;1.60;;;29.40;51.70;;;;;;4115214;28;20042;-46
2023/02/15 05:55:48;;;;;;;2.13;1.38;;;29.40;51.20;;;;;;4111419;28;20062;-45
2023/02/15 05:58:11;;;;;;;3.85;1.90;;;29.40;51.40;;;;;;4129144;28;20046;-51
2023/02/15 06:00:33;;;;;;;4.18;1.40;;;29.50;51.30;;;;;;4121423;28;20058;-47
2023/02/15 06:02:56;;;;;;;3.33;1.90;;;29.50;51.40;;;;;;4113162;28;20101;-47
2023/02/15 06:05:18;;;;;;;8.65;4.25;;;29.50;51.70;;;;;;4115094;28;20295;-42
2023/02/15 06:07:44;;;;;;;6.75;5.55;;;29.30;51.40;;;;;;4114886;28;20689;-45
2023/02/15 06:10:07;;;;;;;9.82;8.57;;;29.00;51.10;;;;;;4114006;28;20049;-45
2023/02/15 06:12:30;;;;;;;11.18;10.07;;;28.60;51.00;;;;;;4117565;28;20045;-45
2023/02/15 06:14:53;;;;;;;12.82;11.52;;;28.30;50.70;;;;;;4119932;28;20113;-40
2023/02/15 06:17:16;;;;;;;14.32;12.40;;;28.00;50.70;;;;;;4124280;28;20052;-42
2023/02/15 06:19:39;;;;;;;14.68;13.20;;;27.80;50.90;;;;;;4121088;28;20427;-46
2023/02/15 06:22:01;;;;;;;15.00;13.52;;;27.80;51.20;;;;;;4121734;28;20050;-45
2023/02/15 06:24:23;;;;;;;15.38;13.77;;;27.70;50.70;;;;;;4125649;28;20034;-43
2023/02/15 06:26:46;;;;;;;15.18;13.68;;;27.60;51.20;;;;;;4125696;28;20451;-45
2023/02/15 06:29:08;;;;;;;16.75;15.05;;;27.50;50.90;;;;;;4116752;28;20476;-43
2023/02/15 06:31:31;;;;;;;17.05;15.35;;;27.40;50.60;;;;;;4121702;28;20256;-44
2023/02/15 06:34:00;;;;;;;18.35;16.58;;;27.30;50.50;;;;;;4125186;28;20061;-44
2023/02/15 06:36:23;;;;;;;19.25;17.45;;;27.20;50.50;;;;;;4115140;28;20555;-47
2023/02/15 06:38:45;;;;;;;19.63;17.73;;;27.10;50.70;;;;;;4115998;28;20038;-48
2023/02/15 06:41:07;;;;;;;19.27;17.48;;;27.00;50.80;;;;;;4115125;28;20077;-44
2023/02/15 06:43:30;;;;;;;19.33;17.52;;;26.90;50.70;;;;;;4116672;28;20551;-45
2023/02/15 06:45:52;;;;;;;18.25;16.55;;;26.80;50.80;;;;;;4113966;28;20042;-44
2023/02/15 06:48:15;;;;;;;18.23;16.48;;;26.70;50.60;;;;;;4116242;28;20034;-44
2023/02/15 06:50:37;;;;;;;17.52;15.65;;;26.60;50.90;;;;;;4119250;28;20046;-44
2023/02/15 06:53:00;;;;;;;17.58;15.60;;;26.50;50.70;;;;;;4121062;28;20034;-40
2023/02/15 06:55:22;;;;;;;16.05;14.35;;;26.40;51.20;;;;;;4120272;28;20046;-47
2023/02/15 06:57:45;;;;;;;14.63;13.13;;;26.30;51.00;;;;;;4121103;28;20110;-47
2023/02/15 07:00:08;;;;;;;14.25;12.88;;;26.20;51.50;;;;;;4109362;28;20744;-50
2023/02/15 07:02:31;;;;;;;13.27;11.97;;;26.10;51.60;;;;;;4110633;28;20150;-46
2023/02/15 07:04:53;;;;;;;11.82;10.68;;;26.00;51.50;;;;;;4110345;28;20296;-47
2023/02/15 07:07:15;;;;;;;11.02;9.85;;;25.90;51.30;;;;;;4111140;28;20042;-45
2023/02/15 07:09:39;;;;;;;11.57;10.20;;;25.80;51.70;;;;;;4113038;28;20659;-44
2023/02/15 07:14:42;;;;;;;9.73;8.82;;;25.60;51.50;;;;;;4108194;28;20092;-48
2023/02/15 07:17:04;;;;;;;8.70;7.80;;;25.50;51.10;;;;;;4116011;28;20042;-44
2023/02/15 07:19:26;;;;;;;8.10;7.30;;;25.50;51.70;;;;;;4110943;28;20051;-45
2023/02/15 07:21:49;;;;;;;9.15;7.25;;;25.40;51.70;;;;;;4110723;28;20045;-49
2023/02/15 07:24:12;;;;;;;8.93;7.55;;;25.30;51.70;;;;;;4115278;28;20081;-44
2023/02/15 07:26:34;;;;;;;9.32;7.38;;;25.10;51.70;;;;;;4117150;28;20046;-45
2023/02/15 07:28:56;;;;;;;8.60;6.93;;;25.10;52.00;;;;;;4126834;28;20045;-49
2023/02/15 07:31:19;;;;;;;8.57;6.78;;;25.00;52.40;;;;;;4120903;28;20046;-48
2023/02/15 07:33:41;;;;;;;7.47;6.68;;;24.90;51.80;;;;;;4118731;28;20052;-42
2023/02/15 07:36:05;;;;;;;9.60;8.30;;;24.80;52.20;;;;;;4119461;28;20073;-46
2023/02/15 07:38:32;;;;;;;9.40;8.00;;;24.70;52.10;;;;;;4122825;28;20066;-44
2023/02/15 07:41:02;;;;;;;9.10;8.00;;;24.60;51.90;;;;;;4117793;28;20523;-47
2023/02/15 07:43:25;;;;;;;8.77;7.88;;;24.50;52.30;;;;;;4113238;28;20063;-44
2023/02/15 07:45:47;;;;;;;10.50;8.60;;;24.40;53.30;;;;;;4111655;28;20049;-48
2023/02/15 07:48:10;;;;;;;10.63;8.35;;;24.30;53.40;;;;;;4115397;28;20058;-47
2023/02/15 07:50:32;;;;;;;14.82;9.68;;;24.20;52.70;;;;;;4115362;28;20152;-47
2023/02/15 07:52:55;;;;;;;12.48;10.05;;;24.20;53.40;;;;;;4113377;28;20583;-50
2023/02/15 07:55:21;;;;;;;12.25;9.43;;;24.10;53.10;;;;;;4110578;28;20125;-48
2023/02/15 07:57:45;;;;;;;11.43;9.18;;;24.00;53.10;;;;;;4112249;28;20042;-48
2023/02/15 08:00:08;;;;;;;10.77;9.68;;;23.90;52.90;;;;;;4108194;28;20157;-47
2023/02/15 08:02:30;;;;;;;11.38;9.20;;;23.90;53.30;;;;;;4109438;28;20072;-47
2023/02/15 08:04:53;;;;;;;11.60;10.35;;;23.80;53.40;;;;;;4116063;28;20113;-46
2023/02/15 08:07:15;;;;;;;10.70;9.60;;;23.70;53.40;;;;;;4111645;28;20194;-47
2023/02/15 08:09:38;;;;;;;10.48;9.38;;;23.60;53.10;;;;;;4110115;28;20051;-47
2023/02/15 08:12:01;;;;;;;11.73;9.50;;;23.50;53.00;;;;;;4111801;28;20542;-48
2023/02/15 08:14:23;;;;;;;10.73;8.80;;;23.50;54.30;;;;;;4106665;28;20816;-46
2023/02/15 08:16:56;;;;;;;8.80;6.90;;;23.50;53.80;;;;;;4103439;28;20049;-47
2023/02/15 08:19:25;;;;;;;10.60;7.73;;;23.60;54.20;;;;;;4129658;23;20047;-42
2023/02/15 08:21:59;;;;;;;9.52;6.78;;;23.70;54.60;;;;;;4105840;28;20047;-43
2023/02/15 08:24:22;;;;;;;;;;;23.80;54.90;;;;;;4113649;28;20061;-41
2023/02/15 08:26:46;;;;;;;7.70;5.70;;;24.00;55.10;;;;;;4113604;28;19914;-45
2023/02/15 08:29:11;;;;;;;6.22;5.20;;;24.10;55.20;;;;;;4113594;28;20038;-44
2023/02/15 08:31:34;;;;;;;9.50;6.50;;;24.20;55.30;;;;;;4108883;28;20046;-44
2023/02/15 08:33:57;;;;;;;10.90;6.03;;;24.30;55.90;;;;;;4113300;28;20101;-45
2023/02/15 08:36:23;;;;;;;7.82;5.32;;;24.40;56.10;;;;;;4104828;28;20151;-42
2023/02/15 08:38:46;;;;;;;8.60;5.25;;;24.60;56.10;;;;;;4107231;28;20050;-42
2023/02/15 08:41:20;;;;;;;7.73;4.57;;;24.70;56.10;;;;;;4111235;28;20042;-44
2023/02/15 08:43:43;;;;;;;8.27;4.93;;;24.80;56.10;;;;;;4116856;28;20280;-44
2023/02/15 08:46:07;;;;;;;6.25;4.22;;;24.90;56.20;;;;;;4110832;28;20112;-40
2023/02/15 08:48:29;;;;;;;6.93;3.80;;;25.00;56.30;;;;;;4111564;28;20053;-41
2023/02/15 08:50:52;;;;;;;6.25;3.53;;;25.10;56.40;;;;;;4127430;23;20050;-77
2023/02/15 08:53:14;;;;;;;9.88;4.03;;;25.30;56.40;;;;;;4124254;28;20089;-73
2023/02/15 08:55:39;;;;;;;5.47;3.58;;;25.40;56.30;;;;;;4120416;28;20050;-74
2023/02/15 08:58:01;;;;;;;4.28;3.05;;;25.50;56.20;;;;;;4123062;28;20041;-73
2023/02/15 09:00:25;;;;;;;5.68;3.35;;;25.60;56.10;;;;;;4131538;28;20378;-73
2023/02/15 09:02:47;;;;;;;5.40;3.33;;;25.70;56.10;;;;;;4127665;28;20038;-76
2023/02/15 09:05:10;;;;;;;6.55;3.38;;;25.80;56.10;;;;;;4114969;28;20050;-78
2023/02/15 09:07:32;;;;;;;6.00;3.20;;;25.90;56.20;;;;;;4126693;28;20034;-77
2023/02/15 09:09:54;;;;;;;4.53;3.28;;;26.00;56.30;;;;;;4118279;28;20527;-78
2023/02/15 09:12:17;;;;;;;4.13;2.88;;;26.10;56.30;;;;;;4116361;28;20038;-75
2023/02/15 09:14:39;;;;;;;6.13;3.30;;;26.10;56.40;;;;;;4130821;28;20065;-78
2023/02/15 09:17:02;;;;;;;4.90;3.03;;;26.20;56.30;;;;;;4123008;28;20053;-77
2023/02/15 09:19:25;;;;;;;5.53;3.42;;;26.20;56.60;;;;;;4133724;28;20042;-77
2023/02/15 09:21:48;;;;;;;6.10;3.75;;;26.20;56.10;;;;;;4130236;28;20038;-77
2023/02/15 09:24:12;;;;;;;4.50;3.20;;;26.30;55.90;;;;;;4120723;28;20034;-77
2023/02/15 09:26:37;;;;;;;9.70;3.95;;;26.40;56.20;;;;;;4109452;28;20058;-75
2023/02/15 09:29:03;;;;;;;5.43;3.03;;;26.40;56.30;;;;;;4116069;28;20043;-78
2023/02/15 09:31:28;;;;;;;5.10;3.10;;;26.50;56.40;;;;;;4130050;28;20062;-76
2023/02/15 09:33:50;;;;;;;5.38;3.15;;;26.50;56.50;;;;;;4120080;28;20045;-77
2023/02/15 09:36:28;;;;;;;4.78;2.90;;;26.60;56.30;;;;;;4136445;28;20104;-78
2023/02/15 09:38:58;;;;;;;3.85;2.90;;;26.70;56.30;;;;;;4121082;28;20061;-76
2023/02/15 09:41:57;;;;;;;3.67;2.60;;;26.70;56.30;;;;;;4133773;28;20057;-74
2023/02/15 09:44:28;;;;;;;4.57;2.90;;;26.70;56.20;;;;;;4129527;28;20054;-75
2023/02/15 09:47:18;;;;;;;3.92;2.47;;;26.80;56.30;;;;;;4108678;28;20039;-73
2023/02/15 09:49:47;;;;;;;4.40;2.42;;;26.90;56.40;;;;;;4126830;28;20038;-76
2023/02/15 09:52:49;;;;;;;3.17;2.30;;;26.90;56.40;;;;;;4126736;28;20145;-78
2023/02/15 09:55:40;;;;;;;3.55;2.50;;;27.00;56.40;;;;;;4128981;28;20037;-76
2023/02/15 09:58:19;;;;;;;4.22;3.00;;;27.00;56.20;;;;;;4126146;28;20069;-78
2023/02/15 10:00:51;;;;;;;4.65;2.78;;;27.00;56.00;;;;;;4125308;28;20123;-77
2023/02/15 10:03:24;;;;;;;5.05;3.00;;;27.00;56.20;;;;;;4127295;28;20041;-76
2023/02/15 10:05:55;;;;;;;3.83;2.42;;;27.10;56.40;;;;;;4126008;28;20597;-74
2023/02/15 10:08:30;;;;;;;4.65;2.38;;;27.20;56.50;;;;;;4107573;28;20133;-74
2023/02/15 10:14:29;;;;;;;5.40;2.00;;;27.20;56.80;;;;;;4129428;28;20492;-74
2023/02/15 10:17:36;;;;;;;2.95;2.20;;;27.30;56.50;;;;;;4118972;28;20038;-77
2023/02/15 10:20:30;;;;;;;4.22;2.00;;;27.30;56.50;;;;;;4115448;28;20106;-76
2023/02/15 10:23:31;;;;;;;4.28;2.25;;;27.30;56.50;;;;;;4100491;28;20053;-73
2023/02/15 10:26:15;;;;;;;4.30;2.00;;;27.40;56.70;;;;;;4128308;28;20044;-75
2023/02/15 10:29:00;;;;;;;3.05;2.20;;;27.40;56.80;;;;;;4120700;28;20039;-74
2023/02/15 10:31:34;;;;;;;3.33;1.88;;;27.40;56.60;;;;;;4119103;28;20076;-75
2023/02/15 10:34:15;;;;;;;3.58;1.75;;;27.40;56.80;;;;;;4123586;28;20058;-74
2023/02/15 10:36:43;;;;;;;3.50;1.88;;;27.30;56.90;;;;;;4126528;28;20041;-75
2023/02/15 10:39:18;;;;;;;2.78;1.55;;;27.30;57.10;;;;;;4114975;28;20286;-75
2023/02/15 10:41:49;;;;;;;2.58;1.60;;;27.30;57.10;;;;;;4122121;28;20066;-75
2023/02/15 10:44:33;;;;;;;2.45;1.50;;;27.30;57.20;;;;;;4124600;28;20041;-73
2023/02/15 10:47:17;;;;;;;2.83;1.60;;;27.30;57.20;;;;;;4126809;28;20097;-72
2023/02/15 10:49:50;;;;;;;1.65;1.30;;;27.30;57.30;;;;;;4109923;28;20126;-73
2023/02/15 10:52:54;;;;;;;2.65;1.60;;;27.30;57.40;;;;;;4123033;28;20189;-73
2023/02/15 10:56:06;;;;;;;1.88;1.20;;;27.40;57.50;;;;;;4121818;28;20858;-74
2023/02/15 10:58:44;;;;;;;2.70;1.27;;;27.40;57.50;;;;;;4064635;29;20040;-72
2023/02/15 11:01:39;;;;;;;2.30;1.30;;;27.40;57.50;;;;;;4123553;28;20050;-73
2023/02/15 11:04:22;;;;;;;1.90;1.30;;;27.40;57.60;;;;;;4108289;28;20047;-73
2023/02/15 11:06:58;;;;;;;1.55;1.20;;;27.40;57.60;;;;;;4122209;28;20050;-73
2023/02/15 11:09:24;;;;;;;2.42;1.33;;;27.50;57.80;;;;;;4133285;28;20034;-74
2023/02/15 11:11:52;;;;;;;2.42;1.20;;;27.50;58.60;;;;;;4119083;28;20102;-73
2023/02/15 11:14:32;;;;;;;1.75;1.20;;;27.50;58.00;;;;;;4129778;28;20031;-72
2023/02/15 11:17:02;;;;;;;1.40;1.10;;;27.50;58.00;;;;;;4124071;28;20054;-72
2023/02/15 11:19:35;;;;;;;1.73;1.17;;;27.50;58.00;;;;;;4114480;28;20042;-72
2023/02/15 11:22:04;;;;;;;1.05;0.80;;;27.50;58.00;;;;;;4129561;28;20093;-71
2023/02/15 11:24:29;;;;;;;1.92;1.00;;;27.50;58.10;;;;;;4128799;28;20702;-72
2023/02/15 11:26:58;;;;;;;2.55;1.40;;;27.60;58.10;;;;;;4113226;28;20125;-74
2023/02/15 11:29:39;;;;;;;4.10;1.20;;;27.60;58.20;;;;;;4122823;28;20403;-74
2023/02/15 11:32:20;;;;;;;4.15;1.60;;;27.60;58.10;;;;;;4111710;28;20100;-75
2023/02/15 11:35:11;;;;;;;6.40;2.15;;;27.70;57.90;;;;;;4119470;28;20037;-75
2023/02/15 11:37:59;;;;;;;3.25;1.10;;;27.60;57.80;;;;;;4124367;28;20125;-74
2023/02/15 11:40:33;;;;;;;7.82;1.73;;;27.60;57.80;;;;;;4123889;28;20042;-74
2023/02/15 11:43:18;;;;;;;5.75;1.20;;;27.60;57.90;;;;;;4115746;28;20122;-77
2023/02/15 11:45:41;;;;;;;;;;;27.60;58.00;;;;;;4113145;28;20038;-73
2023/02/15 11:48:10;;;;;;;3.28;0.93;;;27.60;58.00;;;;;;4114348;28;19918;-73
2023/02/15 11:50:33;;;;;;;2.72;1.15;;;27.60;58.10;;;;;;4119223;28;20101;-72
2023/02/15 11:53:04;;;;;;;2.78;0.90;;;27.60;58.10;;;;;;4132464;28;20504;-73
2023/02/15 11:55:33;;;;;;;3.45;1.20;;;27.50;58.20;;;;;;4118573;28;20073;-73
2023/02/15 11:58:24;;;;;;;4.47;1.42;;;27.50;58.10;;;;;;4119686;28;20540;-73
2023/02/15 12:01:03;;;;;;;2.92;1.58;;;27.50;58.80;;;;;;4121012;28;20045;-73
2023/02/15 12:03:34;;;;;;;6.00;1.45;;;27.50;58.30;;;;;;4124037;28;20469;-74
2023/02/15 12:06:04;;;;;;;2.78;1.38;;;27.50;58.40;;;;;;4127268;28;20049;-71
2023/02/15 12:08:39;;;;;;;3.22;1.50;;;27.50;58.30;;;;;;4105764;28;20039;-72
2023/02/15 12:11:12;;;;;;;3.72;1.30;;;27.50;57.70;;;;;;4120627;28;20042;-72
2023/02/15 12:13:34;;;;;;;6.47;1.52;;;27.40;57.40;;;;;;4126512;28;20794;-73
2023/02/15 12:15:59;;;;;;;8.55;2.15;;;27.40;57.70;;;;;;4116256;28;20047;-73
2023/02/15 12:18:30;;;;;;;8.93;1.60;;;27.40;57.90;;;;;;4127772;28;20117;-73
2023/02/15 12:20:55;;;;;;;3.90;1.30;;;27.30;58.10;;;;;;4108093;28;20050;-73
2023/02/15 12:23:19;;;;;;;4.57;1.20;;;27.30;58.20;;;;;;4118601;28;20030;-72
2023/02/15 12:25:53;;;;;;;1.98;1.27;;;27.40;58.30;;;;;;4108938;28;20046;-73
2023/02/15 12:28:38;;;;;;;7.53;1.63;;;27.40;58.30;;;;;;4114849;28;20034;-72
2023/02/15 12:31:02;;;;;;;2.58;0.73;;;27.40;58.40;;;;;;4122089;28;20105;-74
2023/02/15 12:33:35;;;;;;;4.18;0.90;;;27.40;58.40;;;;;;4123425;28;20039;-73
2023/02/15 12:36:15;;;;;;;2.27;0.90;;;27.40;58.40;;;;;;4130661;28;20049;-72
2023/02/15 12:38:38;;;;;;;5.22;1.33;;;27.30;58.60;;;;;;4125656;28;20334;-74
2023/02/15 12:41:20;;;;;;;2.70;0.67;;;27.30;58.70;;;;;;4121891;28;20437;-72
2023/02/15 12:43:42;;;;;;;2.80;0.88;;;27.30;58.80;;;;;;4130034;28;20077;-72
2023/02/15 12:46:22;;;;;;;5.03;1.02;;;27.30;58.80;;;;;;4129250;28;20034;-73
2023/02/15 12:48:45;;;;;;;4.95;1.20;;;27.30;58.90;;;;;;4097252;28;20069;-73
2023/02/15 12:51:15;;;;;;;2.60;0.77;;;27.30;59.00;;;;;;4109953;28;20050;-72
2023/02/15 12:53:38;;;;;;;4.30;1.15;;;27.30;59.00;;;;;;4100486;28;20440;-74
2023/02/15 12:56:03;;;;;;;4.18;1.13;;;27.30;59.10;;;;;;4121354;28;20047;-75
2023/02/15 12:58:31;;;;;;;9.23;1.17;;;27.30;59.70;;;;;;4118929;28;20571;-74
2023/02/15 13:01:13;;;;;;;10.45;1.52;;;27.30;59.20;;;;;;4127629;28;20057;-73
2023/02/15 13:03:38;;;;;;;6.50;1.55;;;27.30;59.20;;;;;;4122250;28;20034;-75
2023/02/15 13:06:01;;;;;;;6.78;1.45;;;27.30;58.80;;;;;;4119725;28;20045;-73
2023/02/15 13:08:33;;;;;;;;;;;27.20;58.50;;;;;;4136344;28;20685;-72
2023/02/15 13:11:00;;;;;;;3.65;1.23;;;27.20;58.40;;;;;;4124413;28;19922;-73
2023/02/15 13:13:31;;;;;;;2.58;1.27;;;27.20;58.20;;;;;;4123479;28;20042;-72
2023/02/15 13:16:17;;;;;;;4.25;1.52;;;27.20;58.10;;;;;;4115289;28;20038;-72
2023/02/15 13:18:45;;;;;;;3.53;1.23;;;27.10;58.00;;;;;;4126445;28;20050;-72
2023/02/15 13:21:20;;;;;;;6.32;1.40;;;27.10;58.00;;;;;;4126487;28;20140;-73
2023/02/15 13:23:59;;;;;;;4.35;1.42;;;27.00;58.00;;;;;;4115037;28;20039;-73
2023/02/15 13:26:26;;;;;;;2.42;1.00;;;27.00;58.00;;;;;;4117129;28;20638;-74
2023/02/15 13:28:55;;;;;;;3.92;1.27;;;27.00;58.10;;;;;;4126321;28;20042;-74
2023/02/15 13:31:25;;;;;;;2.92;0.93;;;27.00;58.10;;;;;;4126663;28;20042;-74